sensor_id;sensor_type;location;lat;lon;timestamp;P1;durP1;ratioP1;P2;durP2;ratioP2
26502;SDS011;14177;51.520;6.764;2023-06-01T00:00:19;7.68;;;3.90;;
26502;SDS011;14177;51.520;6.764;2023-06-01T00:02:46;9.13;;;4.00;;
26502;SDS011;14177;51.520;6.764;2023-06-01T00:05:14;10.20;;;3.90;;
26502;SDS011;14177;51.520;6.764;2023-06-01T00:07:41;8.95;;;3.92;;
26502;SDS011;14177;51.520;6.764;2023-06-01T00:10:08;8.00;;;4.13;;
26502;SDS011;14177;51.520;6.764;2023-06-01T00:12:36;8.32;;;4.10;;
26502;SDS011;14177;51.520;6.764;2023-06-01T00:15:03;10.60;;;3.85;;
26502;SDS011;14177;51.520;6.764;2023-06-01T00:17:30;7.20;;;3.63;;
26502;SDS011;14177;51.520;6.764;2023-06-01T00:19:58;8.65;;;3.97;;
26502;SDS011;14177;51.520;6.764;2023-06-01T00:22:28;7.40;;;4.03;;
26502;SDS011;14177;51.520;6.764;2023-06-01T00:24:55;9.98;;;4.10;;
26502;SDS011;14177;51.520;6.764;2023-06-01T00:27:22;9.02;;;4.43;;
26502;SDS011;14177;51.520;6.764;2023-06-01T00:29:49;9.32;;;4.55;;
26502;SDS011;14177;51.520;6.764;2023-06-01T00:32:16;8.25;;;4.13;;
26502;SDS011;14177;51.520;6.764;2023-06-01T00:34:43;9.68;;;4.35;;
26502;SDS011;14177;51.520;6.764;2023-06-01T00:37:10;10.85;;;4.53;;
26502;SDS011;14177;51.520;6.764;2023-06-01T00:39:37;11.90;;;5.15;;
26502;SDS011;14177;51.520;6.764;2023-06-01T00:42:04;9.80;;;4.60;;
26502;SDS011;14177;51.520;6.764;2023-06-01T00:44:32;9.98;;;4.97;;
26502;SDS011;14177;51.520;6.764;2023-06-01T00:46:59;14.27;;;5.00;;
26502;SDS011;14177;51.520;6.764;2023-06-01T00:49:27;12.60;;;4.88;;
26502;SDS011;14177;51.520;6.764;2023-06-01T00:51:54;10.30;;;4.95;;
26502;SDS011;14177;51.520;6.764;2023-06-01T00:54:21;13.07;;;5.68;;
26502;SDS011;14177;51.520;6.764;2023-06-01T00:56:49;11.63;;;5.32;;
26502;SDS011;14177;51.520;6.764;2023-06-01T00:59:16;12.68;;;5.40;;
26502;SDS011;14177;51.520;6.764;2023-06-01T01:01:43;11.05;;;5.22;;
26502;SDS011;14177;51.520;6.764;2023-06-01T01:04:10;11.13;;;5.40;;
26502;SDS011;14177;51.520;6.764;2023-06-01T01:09:25;10.48;;;5.38;;
26502;SDS011;14177;51.520;6.764;2023-06-01T01:12:08;13.85;;;5.60;;
26502;SDS011;14177;51.520;6.764;2023-06-01T01:15:05;9.52;;;5.15;;
26502;SDS011;14177;51.520;6.764;2023-06-01T01:17:50;12.30;;;5.28;;
26502;SDS011;14177;51.520;6.764;2023-06-01T01:20:35;10.90;;;5.50;;
26502;SDS011;14177;51.520;6.764;2023-06-01T01:23:38;12.60;;;5.45;;
26502;SDS011;14177;51.520;6.764;2023-06-01T01:26:51;10.45;;;5.45;;
26502;SDS011;14177;51.520;6.764;2023-06-01T01:30:10;8.38;;;5.45;;
26502;SDS011;14177;51.520;6.764;2023-06-01T01:32:39;11.05;;;6.05;;
26502;SDS011;14177;51.520;6.764;2023-06-01T01:35:08;14.55;;;5.95;;
26502;SDS011;14177;51.520;6.764;2023-06-01T01:37:37;9.10;;;5.50;;
26502;SDS011;14177;51.520;6.764;2023-06-01T01:40:23;11.50;;;6.13;;
26502;SDS011;14177;51.520;6.764;2023-06-01T01:42:50;13.10;;;6.68;;
26502;SDS011;14177;51.520;6.764;2023-06-01T01:45:19;14.43;;;6.80;;
26502;SDS011;14177;51.520;6.764;2023-06-01T01:47:54;15.23;;;6.35;;
26502;SDS011;14177;51.520;6.764;2023-06-01T01:50:46;10.23;;;5.85;;
26502;SDS011;14177;51.520;6.764;2023-06-01T01:53:23;10.85;;;6.22;;
26502;SDS011;14177;51.520;6.764;2023-06-01T01:55:52;12.45;;;6.60;;
26502;SDS011;14177;51.520;6.764;2023-06-01T01:58:23;13.90;;;6.35;;
26502;SDS011;14177;51.520;6.764;2023-06-01T02:00:52;11.80;;;6.22;;
26502;SDS011;14177;51.520;6.764;2023-06-01T02:03:22;16.40;;;7.25;;
26502;SDS011;14177;51.520;6.764;2023-06-01T02:06:10;15.02;;;7.43;;
26502;SDS011;14177;51.520;6.764;2023-06-01T02:09:13;12.35;;;7.10;;
26502;SDS011;14177;51.520;6.764;2023-06-01T02:11:51;15.38;;;6.78;;
26502;SDS011;14177;51.520;6.764;2023-06-01T02:15:42;13.50;;;6.40;;
26502;SDS011;14177;51.520;6.764;2023-06-01T02:23:51;20.83;;;7.30;;
26502;SDS011;14177;51.520;6.764;2023-06-01T02:34:53;16.88;;;7.82;;
26502;SDS011;14177;51.520;6.764;2023-06-01T02:39:04;15.15;;;8.15;;
26502;SDS011;14177;51.520;6.764;2023-06-01T02:51:42;16.40;;;8.90;;
26502;SDS011;14177;51.520;6.764;2023-06-01T02:59:39;21.80;;;9.93;;
26502;SDS011;14177;51.520;6.764;2023-06-01T03:03:15;16.95;;;9.52;;
26502;SDS011;14177;51.520;6.764;2023-06-01T03:14:17;17.50;;;10.57;;
26502;SDS011;14177;51.520;6.764;2023-06-01T03:25:19;20.30;;;9.80;;
26502;SDS011;14177;51.520;6.764;2023-06-01T03:28:24;18.23;;;9.88;;
26502;SDS011;14177;51.520;6.764;2023-06-01T03:31:25;18.90;;;10.10;;
26502;SDS011;14177;51.520;6.764;2023-06-01T03:34:43;21.67;;;9.90;;
26502;SDS011;14177;51.520;6.764;2023-06-01T03:38:37;17.20;;;10.30;;
26502;SDS011;14177;51.520;6.764;2023-06-01T03:41:15;18.73;;;9.73;;
26502;SDS011;14177;51.520;6.764;2023-06-01T03:43:42;20.73;;;10.57;;
26502;SDS011;14177;51.520;6.764;2023-06-01T03:46:09;17.33;;;10.02;;
26502;SDS011;14177;51.520;6.764;2023-06-01T03:48:36;15.75;;;9.95;;
26502;SDS011;14177;51.520;6.764;2023-06-01T03:51:04;18.45;;;9.93;;
26502;SDS011;14177;51.520;6.764;2023-06-01T03:53:32;17.02;;;9.43;;
26502;SDS011;14177;51.520;6.764;2023-06-01T03:56:01;18.30;;;10.02;;
26502;SDS011;14177;51.520;6.764;2023-06-01T03:58:31;21.48;;;10.95;;
26502;SDS011;14177;51.520;6.764;2023-06-01T04:00:58;16.98;;;9.75;;
26502;SDS011;14177;51.520;6.764;2023-06-01T04:03:27;17.63;;;10.07;;
26502;SDS011;14177;51.520;6.764;2023-06-01T04:05:55;17.30;;;9.98;;
26502;SDS011;14177;51.520;6.764;2023-06-01T04:08:25;15.68;;;9.07;;
26502;SDS011;14177;51.520;6.764;2023-06-01T04:10:53;19.42;;;9.70;;
26502;SDS011;14177;51.520;6.764;2023-06-01T04:13:21;15.20;;;8.68;;
26502;SDS011;14177;51.520;6.764;2023-06-01T04:15:48;14.80;;;8.60;;
26502;SDS011;14177;51.520;6.764;2023-06-01T04:18:19;18.65;;;8.60;;
26502;SDS011;14177;51.520;6.764;2023-06-01T04:20:54;17.05;;;9.65;;
26502;SDS011;14177;51.520;6.764;2023-06-01T04:23:22;18.27;;;9.60;;
26502;SDS011;14177;51.520;6.764;2023-06-01T04:25:49;18.35;;;9.00;;
26502;SDS011;14177;51.520;6.764;2023-06-01T04:28:18;21.23;;;9.60;;
26502;SDS011;14177;51.520;6.764;2023-06-01T04:30:47;17.80;;;9.40;;
26502;SDS011;14177;51.520;6.764;2023-06-01T04:33:14;13.30;;;8.52;;
26502;SDS011;14177;51.520;6.764;2023-06-01T04:35:42;12.85;;;8.52;;
26502;SDS011;14177;51.520;6.764;2023-06-01T04:38:13;16.30;;;9.35;;
26502;SDS011;14177;51.520;6.764;2023-06-01T04:40:44;20.58;;;9.95;;
26502;SDS011;14177;51.520;6.764;2023-06-01T04:43:11;15.90;;;8.55;;
26502;SDS011;14177;51.520;6.764;2023-06-01T04:45:40;15.60;;;9.00;;
26502;SDS011;14177;51.520;6.764;2023-06-01T04:48:07;17.73;;;8.50;;
26502;SDS011;14177;51.520;6.764;2023-06-01T04:50:41;17.55;;;9.00;;
26502;SDS011;14177;51.520;6.764;2023-06-01T04:53:09;19.67;;;8.20;;
26502;SDS011;14177;51.520;6.764;2023-06-01T04:55:38;13.30;;;8.35;;
26502;SDS011;14177;51.520;6.764;2023-06-01T04:58:05;14.35;;;8.70;;
26502;SDS011;14177;51.520;6.764;2023-06-01T05:00:32;22.20;;;8.80;;
26502;SDS011;14177;51.520;6.764;2023-06-01T05:03:00;22.73;;;9.35;;
26502;SDS011;14177;51.520;6.764;2023-06-01T05:05:29;15.32;;;8.80;;
26502;SDS011;14177;51.520;6.764;2023-06-01T05:07:56;19.23;;;9.55;;
26502;SDS011;14177;51.520;6.764;2023-06-01T05:10:24;16.73;;;9.23;;
26502;SDS011;14177;51.520;6.764;2023-06-01T05:12:51;18.33;;;8.30;;
26502;SDS011;14177;51.520;6.764;2023-06-01T05:15:18;18.20;;;8.80;;
26502;SDS011;14177;51.520;6.764;2023-06-01T05:17:46;16.13;;;9.15;;
26502;SDS011;14177;51.520;6.764;2023-06-01T05:20:18;14.95;;;8.35;;
26502;SDS011;14177;51.520;6.764;2023-06-01T05:25:21;13.88;;;8.27;;
26502;SDS011;14177;51.520;6.764;2023-06-01T05:27:48;17.08;;;8.63;;
26502;SDS011;14177;51.520;6.764;2023-06-01T05:30:16;21.50;;;9.00;;
26502;SDS011;14177;51.520;6.764;2023-06-01T05:32:45;16.10;;;8.90;;
26502;SDS011;14177;51.520;6.764;2023-06-01T05:35:15;15.88;;;8.93;;
26502;SDS011;14177;51.520;6.764;2023-06-01T05:37:43;17.95;;;8.00;;
26502;SDS011;14177;51.520;6.764;2023-06-01T05:40:13;18.90;;;7.97;;
26502;SDS011;14177;51.520;6.764;2023-06-01T05:42:41;12.93;;;8.00;;
26502;SDS011;14177;51.520;6.764;2023-06-01T05:45:09;21.05;;;11.15;;
26502;SDS011;14177;51.520;6.764;2023-06-01T05:47:36;19.20;;;8.85;;
26502;SDS011;14177;51.520;6.764;2023-06-01T05:50:04;15.13;;;8.23;;
26502;SDS011;14177;51.520;6.764;2023-06-01T05:52:32;15.65;;;8.20;;
26502;SDS011;14177;51.520;6.764;2023-06-01T05:55:01;17.05;;;8.73;;
26502;SDS011;14177;51.520;6.764;2023-06-01T05:57:29;19.35;;;8.68;;
26502;SDS011;14177;51.520;6.764;2023-06-01T05:59:56;15.90;;;8.55;;
26502;SDS011;14177;51.520;6.764;2023-06-01T06:02:24;13.85;;;8.70;;
26502;SDS011;14177;51.520;6.764;2023-06-01T06:04:51;16.77;;;8.82;;
26502;SDS011;14177;51.520;6.764;2023-06-01T06:07:19;16.70;;;8.77;;
26502;SDS011;14177;51.520;6.764;2023-06-01T06:09:46;14.95;;;8.88;;
26502;SDS011;14177;51.520;6.764;2023-06-01T06:12:13;14.48;;;7.78;;
26502;SDS011;14177;51.520;6.764;2023-06-01T06:14:42;15.32;;;8.77;;
26502;SDS011;14177;51.520;6.764;2023-06-01T06:17:13;16.70;;;8.20;;
26502;SDS011;14177;51.520;6.764;2023-06-01T06:19:41;15.93;;;8.52;;
26502;SDS011;14177;51.520;6.764;2023-06-01T06:22:10;16.67;;;9.02;;
26502;SDS011;14177;51.520;6.764;2023-06-01T06:24:37;16.00;;;9.13;;
26502;SDS011;14177;51.520;6.764;2023-06-01T06:27:05;18.80;;;9.00;;
26502;SDS011;14177;51.520;6.764;2023-06-01T06:29:33;15.95;;;7.82;;
26502;SDS011;14177;51.520;6.764;2023-06-01T06:32:00;12.30;;;8.35;;
26502;SDS011;14177;51.520;6.764;2023-06-01T06:34:28;17.08;;;7.95;;
26502;SDS011;14177;51.520;6.764;2023-06-01T06:37:05;15.93;;;8.52;;
26502;SDS011;14177;51.520;6.764;2023-06-01T06:39:33;14.35;;;8.50;;
26502;SDS011;14177;51.520;6.764;2023-06-01T06:42:01;16.73;;;8.27;;
26502;SDS011;14177;51.520;6.764;2023-06-01T06:44:29;18.88;;;8.68;;
26502;SDS011;14177;51.520;6.764;2023-06-01T06:46:57;13.38;;;8.20;;
26502;SDS011;14177;51.520;6.764;2023-06-01T06:49:28;18.83;;;8.38;;
26502;SDS011;14177;51.520;6.764;2023-06-01T06:51:55;17.70;;;8.48;;
26502;SDS011;14177;51.520;6.764;2023-06-01T06:54:23;12.88;;;8.60;;
26502;SDS011;14177;51.520;6.764;2023-06-01T06:56:52;15.05;;;8.73;;
26502;SDS011;14177;51.520;6.764;2023-06-01T06:59:47;14.57;;;8.95;;
26502;SDS011;14177;51.520;6.764;2023-06-01T07:02:23;12.18;;;8.18;;
26502;SDS011;14177;51.520;6.764;2023-06-01T07:04:56;17.00;;;8.93;;
26502;SDS011;14177;51.520;6.764;2023-06-01T07:07:29;14.00;;;8.05;;
26502;SDS011;14177;51.520;6.764;2023-06-01T07:10:21;14.52;;;7.65;;
26502;SDS011;14177;51.520;6.764;2023-06-01T07:13:06;15.93;;;8.57;;
26502;SDS011;14177;51.520;6.764;2023-06-01T07:16:26;20.58;;;8.43;;
26502;SDS011;14177;51.520;6.764;2023-06-01T07:21:53;12.77;;;7.82;;
26502;SDS011;14177;51.520;6.764;2023-06-01T07:24:35;14.27;;;7.70;;
26502;SDS011;14177;51.520;6.764;2023-06-01T07:27:24;19.25;;;7.95;;
26502;SDS011;14177;51.520;6.764;2023-06-01T07:45:54;15.02;;;7.63;;
26502;SDS011;14177;51.520;6.764;2023-06-01T07:48:27;35.53;;;7.93;;
26502;SDS011;14177;51.520;6.764;2023-06-01T07:51:08;22.63;;;8.15;;
26502;SDS011;14177;51.520;6.764;2023-06-01T07:53:41;13.77;;;7.50;;
26502;SDS011;14177;51.520;6.764;2023-06-01T07:56:14;11.82;;;7.45;;
26502;SDS011;14177;51.520;6.764;2023-06-01T07:58:41;16.13;;;7.20;;
26502;SDS011;14177;51.520;6.764;2023-06-01T08:01:10;17.15;;;7.65;;
26502;SDS011;14177;51.520;6.764;2023-06-01T08:03:41;12.10;;;7.18;;
26502;SDS011;14177;51.520;6.764;2023-06-01T08:06:10;15.25;;;7.18;;
26502;SDS011;14177;51.520;6.764;2023-06-01T08:08:38;17.20;;;7.00;;
26502;SDS011;14177;51.520;6.764;2023-06-01T08:11:05;13.10;;;6.47;;
26502;SDS011;14177;51.520;6.764;2023-06-01T08:13:35;10.90;;;6.93;;
26502;SDS011;14177;51.520;6.764;2023-06-01T08:16:02;13.75;;;7.00;;
26502;SDS011;14177;51.520;6.764;2023-06-01T08:18:30;16.65;;;6.82;;
26502;SDS011;14177;51.520;6.764;2023-06-01T08:20:58;14.15;;;6.47;;
26502;SDS011;14177;51.520;6.764;2023-06-01T08:23:26;12.40;;;6.53;;
26502;SDS011;14177;51.520;6.764;2023-06-01T08:25:54;11.95;;;6.47;;
26502;SDS011;14177;51.520;6.764;2023-06-01T08:28:21;15.18;;;6.78;;
26502;SDS011;14177;51.520;6.764;2023-06-01T08:30:48;13.10;;;6.55;;
26502;SDS011;14177;51.520;6.764;2023-06-01T08:33:15;14.40;;;7.07;;
26502;SDS011;14177;51.520;6.764;2023-06-01T08:35:43;13.70;;;6.38;;
26502;SDS011;14177;51.520;6.764;2023-06-01T08:38:10;12.15;;;5.90;;
26502;SDS011;14177;51.520;6.764;2023-06-01T08:40:37;12.00;;;6.05;;
26502;SDS011;14177;51.520;6.764;2023-06-01T08:45:47;11.82;;;6.28;;
26502;SDS011;14177;51.520;6.764;2023-06-01T08:48:18;12.15;;;6.57;;
26502;SDS011;14177;51.520;6.764;2023-06-01T08:50:49;12.45;;;6.88;;
26502;SDS011;14177;51.520;6.764;2023-06-01T08:53:18;13.63;;;6.35;;
26502;SDS011;14177;51.520;6.764;2023-06-01T08:55:51;12.10;;;6.95;;
26502;SDS011;14177;51.520;6.764;2023-06-01T08:58:20;13.70;;;6.38;;
26502;SDS011;14177;51.520;6.764;2023-06-01T09:00:47;11.27;;;6.28;;
26502;SDS011;14177;51.520;6.764;2023-06-01T09:03:17;16.00;;;6.25;;
26502;SDS011;14177;51.520;6.764;2023-06-01T09:05:44;12.82;;;5.80;;
26502;SDS011;14177;51.520;6.764;2023-06-01T09:08:12;13.93;;;6.43;;
26502;SDS011;14177;51.520;6.764;2023-06-01T09:10:40;13.15;;;6.45;;
26502;SDS011;14177;51.520;6.764;2023-06-01T09:13:07;11.10;;;6.32;;
26502;SDS011;14177;51.520;6.764;2023-06-01T09:15:34;12.20;;;6.35;;
26502;SDS011;14177;51.520;6.764;2023-06-01T09:18:16;11.95;;;6.63;;
26502;SDS011;14177;51.520;6.764;2023-06-01T09:20:44;12.27;;;6.65;;
26502;SDS011;14177;51.520;6.764;2023-06-01T09:23:11;13.70;;;6.03;;
26502;SDS011;14177;51.520;6.764;2023-06-01T09:26:06;12.05;;;6.45;;
26502;SDS011;14177;51.520;6.764;2023-06-01T09:28:54;11.07;;;6.18;;
26502;SDS011;14177;51.520;6.764;2023-06-01T09:34:12;10.77;;;6.15;;
26502;SDS011;14177;51.520;6.764;2023-06-01T09:36:45;15.13;;;6.47;;
26502;SDS011;14177;51.520;6.764;2023-06-01T09:39:22;13.88;;;6.95;;
26502;SDS011;14177;51.520;6.764;2023-06-01T09:41:54;11.05;;;5.43;;
26502;SDS011;14177;51.520;6.764;2023-06-01T09:44:29;11.13;;;6.22;;
26502;SDS011;14177;51.520;6.764;2023-06-01T09:47:02;9.55;;;5.28;;
26502;SDS011;14177;51.520;6.764;2023-06-01T09:49:35;15.75;;;6.18;;
26502;SDS011;14177;51.520;6.764;2023-06-01T09:54:45;12.27;;;6.25;;
26502;SDS011;14177;51.520;6.764;2023-06-01T09:57:19;12.80;;;5.80;;
26502;SDS011;14177;51.520;6.764;2023-06-01T09:59:53;11.65;;;5.85;;
26502;SDS011;14177;51.520;6.764;2023-06-01T10:02:21;12.80;;;6.13;;
26502;SDS011;14177;51.520;6.764;2023-06-01T10:05:06;10.32;;;5.95;;
26502;SDS011;14177;51.520;6.764;2023-06-01T10:12:48;10.30;;;6.07;;
26502;SDS011;14177;51.520;6.764;2023-06-01T10:21:22;11.35;;;5.35;;
26502;SDS011;14177;51.520;6.764;2023-06-01T10:24:05;10.15;;;6.22;;
26502;SDS011;14177;51.520;6.764;2023-06-01T10:30:10;12.18;;;5.60;;
26502;SDS011;14177;51.520;6.764;2023-06-01T10:33:38;11.70;;;6.03;;
26502;SDS011;14177;51.520;6.764;2023-06-01T10:49:09;10.38;;;5.20;;
26502;SDS011;14177;51.520;6.764;2023-06-01T10:51:38;11.60;;;5.50;;
26502;SDS011;14177;51.520;6.764;2023-06-01T10:54:28;11.60;;;4.93;;
26502;SDS011;14177;51.520;6.764;2023-06-01T11:00:26;12.88;;;5.90;;
26502;SDS011;14177;51.520;6.764;2023-06-01T11:03:01;10.73;;;5.10;;
26502;SDS011;14177;51.520;6.764;2023-06-01T11:05:42;14.90;;;6.20;;
26502;SDS011;14177;51.520;6.764;2023-06-01T11:11:14;12.00;;;6.07;;
26502;SDS011;14177;51.520;6.764;2023-06-01T11:14:35;13.38;;;6.05;;
26502;SDS011;14177;51.520;6.764;2023-06-01T11:17:56;9.95;;;5.90;;
26502;SDS011;14177;51.520;6.764;2023-06-01T11:21:48;11.80;;;6.07;;
26502;SDS011;14177;51.520;6.764;2023-06-01T11:24:35;13.93;;;6.07;;
26502;SDS011;14177;51.520;6.764;2023-06-01T11:27:10;12.82;;;7.35;;
26502;SDS011;14177;51.520;6.764;2023-06-01T11:29:41;9.40;;;6.35;;
26502;SDS011;14177;51.520;6.764;2023-06-01T11:32:22;11.95;;;6.60;;
26502;SDS011;14177;51.520;6.764;2023-06-01T11:34:56;12.45;;;6.25;;
26502;SDS011;14177;51.520;6.764;2023-06-01T11:37:32;14.85;;;6.60;;
26502;SDS011;14177;51.520;6.764;2023-06-01T11:46:12;13.05;;;6.75;;
26502;SDS011;14177;51.520;6.764;2023-06-01T11:49:21;12.88;;;6.57;;
26502;SDS011;14177;51.520;6.764;2023-06-01T11:52:03;12.88;;;6.43;;
26502;SDS011;14177;51.520;6.764;2023-06-01T11:54:41;12.40;;;6.50;;
26502;SDS011;14177;51.520;6.764;2023-06-01T11:58:04;9.80;;;6.20;;
26502;SDS011;14177;51.520;6.764;2023-06-01T12:00:47;12.95;;;5.78;;
26502;SDS011;14177;51.520;6.764;2023-06-01T12:07:09;10.98;;;5.95;;
26502;SDS011;14177;51.520;6.764;2023-06-01T12:09:52;12.57;;;6.55;;
26502;SDS011;14177;51.520;6.764;2023-06-01T12:13:03;8.27;;;5.50;;
26502;SDS011;14177;51.520;6.764;2023-06-01T12:16:00;13.35;;;6.60;;
26502;SDS011;14177;51.520;6.764;2023-06-01T12:18:47;9.48;;;5.88;;
26502;SDS011;14177;51.520;6.764;2023-06-01T12:21:17;13.10;;;5.57;;
26502;SDS011;14177;51.520;6.764;2023-06-01T12:23:56;10.80;;;5.53;;
26502;SDS011;14177;51.520;6.764;2023-06-01T12:26:35;8.85;;;5.00;;
26502;SDS011;14177;51.520;6.764;2023-06-01T12:29:05;15.65;;;5.35;;
26502;SDS011;14177;51.520;6.764;2023-06-01T12:31:35;10.25;;;5.15;;
26502;SDS011;14177;51.520;6.764;2023-06-01T12:34:15;9.15;;;5.18;;
26502;SDS011;14177;51.520;6.764;2023-06-01T12:37:13;12.38;;;6.20;;
26502;SDS011;14177;51.520;6.764;2023-06-01T12:40:24;13.05;;;5.28;;
26502;SDS011;14177;51.520;6.764;2023-06-01T12:42:53;8.25;;;5.20;;
26502;SDS011;14177;51.520;6.764;2023-06-01T12:45:38;12.07;;;5.40;;
26502;SDS011;14177;51.520;6.764;2023-06-01T12:52:02;10.77;;;5.45;;
26502;SDS011;14177;51.520;6.764;2023-06-01T12:54:39;11.00;;;5.32;;
26502;SDS011;14177;51.520;6.764;2023-06-01T12:57:13;9.32;;;5.95;;
26502;SDS011;14177;51.520;6.764;2023-06-01T12:59:54;11.63;;;4.90;;
26502;SDS011;14177;51.520;6.764;2023-06-01T13:02:30;9.27;;;4.70;;
26502;SDS011;14177;51.520;6.764;2023-06-01T13:04:59;13.23;;;5.43;;
26502;SDS011;14177;51.520;6.764;2023-06-01T13:07:26;10.02;;;5.32;;
26502;SDS011;14177;51.520;6.764;2023-06-01T13:09:53;8.98;;;5.68;;
26502;SDS011;14177;51.520;6.764;2023-06-01T13:12:20;8.02;;;4.60;;
26502;SDS011;14177;51.520;6.764;2023-06-01T13:14:47;9.77;;;5.78;;
26502;SDS011;14177;51.520;6.764;2023-06-01T13:17:15;8.65;;;4.97;;
26502;SDS011;14177;51.520;6.764;2023-06-01T13:19:42;10.00;;;5.15;;
26502;SDS011;14177;51.520;6.764;2023-06-01T13:22:10;9.05;;;4.80;;
26502;SDS011;14177;51.520;6.764;2023-06-01T13:24:37;11.20;;;4.60;;
26502;SDS011;14177;51.520;6.764;2023-06-01T13:27:24;13.25;;;5.22;;
26502;SDS011;14177;51.520;6.764;2023-06-01T13:29:51;10.70;;;4.70;;
26502;SDS011;14177;51.520;6.764;2023-06-01T13:32:18;9.48;;;4.78;;
26502;SDS011;14177;51.520;6.764;2023-06-01T13:34:46;9.70;;;4.53;;
26502;SDS011;14177;51.520;6.764;2023-06-01T13:37:13;7.47;;;4.03;;
26502;SDS011;14177;51.520;6.764;2023-06-01T13:39:41;8.13;;;4.53;;
26502;SDS011;14177;51.520;6.764;2023-06-01T13:42:07;9.25;;;4.80;;
26502;SDS011;14177;51.520;6.764;2023-06-01T13:44:35;8.52;;;4.03;;
26502;SDS011;14177;51.520;6.764;2023-06-01T13:47:02;12.15;;;5.25;;
26502;SDS011;14177;51.520;6.764;2023-06-01T13:49:29;9.00;;;4.75;;
26502;SDS011;14177;51.520;6.764;2023-06-01T13:51:56;7.80;;;4.50;;
26502;SDS011;14177;51.520;6.764;2023-06-01T13:54:23;8.65;;;4.43;;
26502;SDS011;14177;51.520;6.764;2023-06-01T13:56:50;9.30;;;4.70;;
26502;SDS011;14177;51.520;6.764;2023-06-01T13:59:18;10.00;;;4.70;;
26502;SDS011;14177;51.520;6.764;2023-06-01T14:01:46;8.80;;;4.35;;
26502;SDS011;14177;51.520;6.764;2023-06-01T14:04:13;10.10;;;5.18;;
26502;SDS011;14177;51.520;6.764;2023-06-01T14:06:40;7.50;;;4.60;;
26502;SDS011;14177;51.520;6.764;2023-06-01T14:09:07;11.52;;;5.00;;
26502;SDS011;14177;51.520;6.764;2023-06-01T14:11:35;8.48;;;4.63;;
26502;SDS011;14177;51.520;6.764;2023-06-01T14:14:02;9.43;;;5.30;;
26502;SDS011;14177;51.520;6.764;2023-06-01T14:16:29;8.65;;;3.92;;
26502;SDS011;14177;51.520;6.764;2023-06-01T14:18:56;7.68;;;4.95;;
26502;SDS011;14177;51.520;6.764;2023-06-01T14:21:28;9.75;;;5.20;;
26502;SDS011;14177;51.520;6.764;2023-06-01T14:24:00;13.38;;;4.50;;
26502;SDS011;14177;51.520;6.764;2023-06-01T14:26:31;9.23;;;4.72;;
26502;SDS011;14177;51.520;6.764;2023-06-01T14:29:14;9.50;;;5.55;;
26502;SDS011;14177;51.520;6.764;2023-06-01T14:31:53;13.10;;;5.03;;
26502;SDS011;14177;51.520;6.764;2023-06-01T14:34:23;12.75;;;5.70;;
26502;SDS011;14177;51.520;6.764;2023-06-01T14:37:12;9.77;;;4.88;;
26502;SDS011;14177;51.520;6.764;2023-06-01T14:39:53;11.85;;;5.03;;
26502;SDS011;14177;51.520;6.764;2023-06-01T14:42:31;8.55;;;5.05;;
26502;SDS011;14177;51.520;6.764;2023-06-01T14:48:17;11.27;;;5.50;;
26502;SDS011;14177;51.520;6.764;2023-06-01T14:50:46;8.13;;;4.75;;
26502;SDS011;14177;51.520;6.764;2023-06-01T14:53:15;10.15;;;5.15;;
26502;SDS011;14177;51.520;6.764;2023-06-01T14:57:11;11.38;;;5.13;;
26502;SDS011;14177;51.520;6.764;2023-06-01T14:59:42;9.85;;;5.18;;
26502;SDS011;14177;51.520;6.764;2023-06-01T15:02:37;9.35;;;5.07;;
26502;SDS011;14177;51.520;6.764;2023-06-01T15:05:24;12.18;;;5.53;;
26502;SDS011;14177;51.520;6.764;2023-06-01T15:08:05;10.00;;;4.60;;
26502;SDS011;14177;51.520;6.764;2023-06-01T15:10:34;12.05;;;5.38;;
26502;SDS011;14177;51.520;6.764;2023-06-01T15:13:06;8.70;;;4.75;;
26502;SDS011;14177;51.520;6.764;2023-06-01T15:15:40;8.30;;;5.15;;
26502;SDS011;14177;51.520;6.764;2023-06-01T15:18:12;10.65;;;4.40;;
26502;SDS011;14177;51.520;6.764;2023-06-01T15:20:47;9.60;;;5.25;;
26502;SDS011;14177;51.520;6.764;2023-06-01T15:23:29;8.02;;;4.13;;
26502;SDS011;14177;51.520;6.764;2023-06-01T15:26:02;7.53;;;4.45;;
26502;SDS011;14177;51.520;6.764;2023-06-01T15:28:36;10.77;;;4.63;;
26502;SDS011;14177;51.520;6.764;2023-06-01T15:31:15;8.32;;;5.15;;
26502;SDS011;14177;51.520;6.764;2023-06-01T15:33:44;11.55;;;5.18;;
26502;SDS011;14177;51.520;6.764;2023-06-01T15:36:16;9.20;;;5.13;;
26502;SDS011;14177;51.520;6.764;2023-06-01T15:38:45;7.88;;;4.28;;
26502;SDS011;14177;51.520;6.764;2023-06-01T15:41:13;11.95;;;5.03;;
26502;SDS011;14177;51.520;6.764;2023-06-01T15:43:41;7.95;;;4.20;;
26502;SDS011;14177;51.520;6.764;2023-06-01T15:46:18;6.72;;;3.72;;
26502;SDS011;14177;51.520;6.764;2023-06-01T15:49:02;10.30;;;4.25;;
26502;SDS011;14177;51.520;6.764;2023-06-01T15:51:36;9.30;;;4.40;;
26502;SDS011;14177;51.520;6.764;2023-06-01T15:54:18;12.00;;;3.95;;
26502;SDS011;14177;51.520;6.764;2023-06-01T15:56:53;8.45;;;3.83;;
26502;SDS011;14177;51.520;6.764;2023-06-01T15:59:32;10.63;;;3.60;;
26502;SDS011;14177;51.520;6.764;2023-06-01T16:02:00;8.50;;;3.78;;
26502;SDS011;14177;51.520;6.764;2023-06-01T16:04:38;8.35;;;3.42;;
26502;SDS011;14177;51.520;6.764;2023-06-01T16:07:06;9.98;;;3.80;;
26502;SDS011;14177;51.520;6.764;2023-06-01T16:09:37;6.85;;;3.20;;
26502;SDS011;14177;51.520;6.764;2023-06-01T16:12:26;7.32;;;3.75;;
26502;SDS011;14177;51.520;6.764;2023-06-01T16:14:57;7.68;;;3.58;;
26502;SDS011;14177;51.520;6.764;2023-06-01T16:17:35;6.40;;;3.10;;
26502;SDS011;14177;51.520;6.764;2023-06-01T16:20:18;5.13;;;3.72;;
26502;SDS011;14177;51.520;6.764;2023-06-01T16:22:52;6.53;;;3.83;;
26502;SDS011;14177;51.520;6.764;2023-06-01T16:25:34;7.68;;;3.60;;
26502;SDS011;14177;51.520;6.764;2023-06-01T16:28:14;5.15;;;3.78;;
26502;SDS011;14177;51.520;6.764;2023-06-01T16:30:57;9.20;;;3.70;;
26502;SDS011;14177;51.520;6.764;2023-06-01T16:33:59;8.32;;;3.60;;
26502;SDS011;14177;51.520;6.764;2023-06-01T16:36:33;6.97;;;3.42;;
26502;SDS011;14177;51.520;6.764;2023-06-01T16:39:14;5.13;;;3.05;;
26502;SDS011;14177;51.520;6.764;2023-06-01T16:41:44;6.40;;;3.40;;
26502;SDS011;14177;51.520;6.764;2023-06-01T16:44:12;7.05;;;3.55;;
26502;SDS011;14177;51.520;6.764;2023-06-01T16:46:56;5.93;;;3.20;;
26502;SDS011;14177;51.520;6.764;2023-06-01T16:49:29;6.30;;;3.35;;
26502;SDS011;14177;51.520;6.764;2023-06-01T16:52:13;5.65;;;3.50;;
26502;SDS011;14177;51.520;6.764;2023-06-01T16:55:20;9.45;;;3.65;;
26502;SDS011;14177;51.520;6.764;2023-06-01T16:58:05;13.20;;;4.00;;
26502;SDS011;14177;51.520;6.764;2023-06-01T17:04:41;4.47;;;3.33;;
26502;SDS011;14177;51.520;6.764;2023-06-01T17:07:22;9.35;;;4.38;;
26502;SDS011;14177;51.520;6.764;2023-06-01T17:09:50;7.05;;;3.63;;
26502;SDS011;14177;51.520;6.764;2023-06-01T17:12:27;10.73;;;3.85;;
26502;SDS011;14177;51.520;6.764;2023-06-01T17:15:04;6.70;;;3.88;;
26502;SDS011;14177;51.520;6.764;2023-06-01T17:17:32;7.25;;;3.88;;
26502;SDS011;14177;51.520;6.764;2023-06-01T17:19:59;6.15;;;3.85;;
26502;SDS011;14177;51.520;6.764;2023-06-01T17:22:27;10.23;;;3.97;;
26502;SDS011;14177;51.520;6.764;2023-06-01T17:24:54;6.22;;;3.80;;
26502;SDS011;14177;51.520;6.764;2023-06-01T17:27:22;8.18;;;4.13;;
26502;SDS011;14177;51.520;6.764;2023-06-01T17:29:49;4.68;;;3.70;;
26502;SDS011;14177;51.520;6.764;2023-06-01T17:32:16;6.30;;;3.80;;
26502;SDS011;14177;51.520;6.764;2023-06-01T17:34:43;5.88;;;3.75;;
26502;SDS011;14177;51.520;6.764;2023-06-01T17:37:10;8.95;;;4.18;;
26502;SDS011;14177;51.520;6.764;2023-06-01T17:39:38;5.55;;;3.42;;